Time;durP1;ratioP1;P1;durP2;ratioP2;P2;SDS_P1;SDS_P2;PMS_P1;PMS_P2;Temp;Humidity;BMP_temperature;BMP_pressure;BME280_temperature;BME280_humidity;BME280_pressure;Samples;Min_cycle;Max_cycle;Signal;HPM_P1;HPM_P2
2021/12/06 00:01:45;;;;;;;;;72.00;57.00;;;;;9.09;71.87;98100.00;4991261;28;8882;-72
2021/12/06 00:04:19;;;;;;;;;75.00;60.33;;;;;9.00;72.33;98097.56;5007715;28;8961;-71
2021/12/06 00:06:50;;;;;;;;;69.50;55.75;;;;;8.94;72.21;98098.53;4995483;28;9053;-73
2021/12/06 00:09:21;;;;;;;;;80.33;61.67;;;;;8.85;71.33;98111.69;4995644;28;8914;-72
2021/12/06 00:11:57;;;;;;;;;78.33;61.67;;;;;8.79;72.24;98104.00;4995035;28;9067;-74
2021/12/06 00:14:29;;;;;;;;;69.50;55.50;;;;;8.75;72.35;98110.97;5018487;28;8950;-74
2021/12/06 00:17:00;;;;;;;;;70.50;56.25;;;;;8.71;71.71;98109.28;5008858;28;8939;-73
2021/12/06 00:19:30;;;;;;;;;73.00;58.00;;;;;8.57;72.13;98101.72;5009263;28;8858;-73
2021/12/06 00:22:00;;;;;;;;;73.50;58.25;;;;;8.50;72.12;98105.28;5008687;28;8858;-73
2021/12/06 00:24:29;;;;;;;;;64.00;52.75;;;;;8.51;72.73;98104.41;4956439;28;8869;-72
2021/12/06 00:27:00;;;;;;;;;66.75;55.50;;;;;8.51;72.39;98106.16;4989319;28;8857;-74
2021/12/06 00:29:29;;;;;;;;;68.50;55.25;;;;;8.57;72.61;98106.06;4995441;28;8905;-73
2021/12/06 00:31:58;;;;;;;;;63.25;54.25;;;;;8.57;72.66;98099.13;5004173;28;8873;-74
2021/12/06 00:34:33;;;;;;;;;69.00;52.75;;;;;8.56;72.66;98097.41;4966295;28;8874;-74
2021/12/06 00:37:17;;;;;;;;;48.50;43.50;;;;;7.92;73.42;98106.09;5006861;28;8890;-72
2021/12/06 00:39:50;;;;;;;;;69.75;55.75;;;;;7.54;75.29;98100.53;4991342;28;8901;-73
2021/12/06 00:42:22;;;;;;;;;65.00;54.00;;;;;6.84;79.27;98115.03;5006759;28;9017;-72
2021/12/06 00:44:51;;;;;;;;;70.75;57.00;;;;;6.92;80.14;98121.03;5007519;28;8878;-72
2021/12/06 00:47:21;;;;;;;;;65.75;51.50;;;;;7.23;78.97;98129.38;5020743;28;9632;-73
2021/12/06 00:49:51;;;;;;;;;67.25;55.00;;;;;7.41;78.10;98130.06;4974410;28;8896;-73
2021/12/06 00:52:20;;;;;;;;;67.25;53.75;;;;;7.63;77.45;98129.81;4988638;28;8970;-72
2021/12/06 00:54:50;;;;;;;;;71.25;56.25;;;;;7.75;76.62;98130.53;4990968;28;8846;-74
2021/12/06 00:57:20;;;;;;;;;79.25;59.50;;;;;7.91;76.53;98138.13;4967262;28;8866;-74
2021/12/06 00:59:50;;;;;;;;;75.25;57.25;;;;;8.02;76.44;98140.59;4974660;28;8870;-73
2021/12/06 01:02:20;;;;;;;;;67.00;54.75;;;;;7.91;75.32;98148.50;5017199;28;9003;-72
2021/12/06 01:04:51;;;;;;;;;66.25;52.75;;;;;8.03;75.31;98147.50;4994489;28;8879;-75
2021/12/06 01:07:20;;;;;;;;;71.75;53.00;;;;;8.08;75.21;98146.56;4930492;28;8901;-74
2021/12/06 01:09:49;;;;;;;;;66.50;53.50;;;;;8.09;75.84;98156.06;5010221;28;8973;-74
2021/12/06 01:12:17;;;;;;;;;63.50;49.25;;;;;8.09;74.93;98156.06;4993669;28;9015;-75
2021/12/06 01:14:48;;;;;;;;;69.00;56.75;;;;;7.94;75.63;98151.94;5010164;28;8904;-74
2021/12/06 01:17:17;;;;;;;;;67.00;54.25;;;;;7.97;76.00;98144.09;5002011;28;8870;-72
2021/12/06 01:19:45;;;;;;;;;67.75;55.75;;;;;8.00;76.07;98148.41;5003788;28;9870;-74
2021/12/06 01:22:25;;;;;;;;;72.75;56.50;;;;;8.08;76.38;98146.56;4993667;28;8977;-73
2021/12/06 01:24:58;;;;;;;;;52.50;40.25;;;;;8.19;75.64;98139.47;4993471;28;8880;-75
2021/12/06 01:27:52;;;;;;;;;67.75;54.75;;;;;8.25;75.39;98154.13;5027561;28;8863;-74
2021/12/06 01:41:30;;;;;;;;;80.00;61.25;;;;;8.42;74.55;98140.06;5011047;28;8864;-75
2021/12/06 01:44:11;;;;;;;;;72.25;57.50;;;;;8.48;74.63;98143.44;5025911;28;9054;-73
2021/12/06 01:46:52;;;;;;;;;71.00;57.75;;;;;8.40;75.44;98140.06;5006864;28;8853;-70
2021/12/06 01:49:25;;;;;;;;;77.00;59.00;;;;;8.43;74.68;98132.28;4989535;28;8863;-74
2021/12/06 01:51:55;;;;;;;;;74.00;57.50;;;;;8.44;74.97;98143.50;4989541;28;8887;-75
2021/12/06 01:54:24;;;;;;;;;71.75;56.75;;;;;8.32;76.20;98136.72;5006182;28;8863;-73
2021/12/06 01:56:54;;;;;;;;;67.75;55.75;;;;;8.40;75.82;98133.13;5001763;28;8879;-75
2021/12/06 01:59:25;;;;;;;;;70.25;53.25;;;;;8.39;75.34;98120.16;5025844;28;9528;-73
2021/12/06 02:01:57;;;;;;;;;65.00;51.50;;;;;8.34;75.43;98125.41;5009295;28;8860;-74
2021/12/06 02:04:28;;;;;;;;;67.25;54.25;;;;;8.27;76.30;98107.34;4969894;28;8908;-75
2021/12/06 02:06:58;;;;;;;;;58.75;47.25;;;;;8.20;75.80;98115.25;4969904;28;8858;-74
2021/12/06 02:09:28;;;;;;;;;60.00;49.50;;;;;8.26;76.06;98119.50;4953904;28;8855;-74
2021/12/06 02:12:04;;;;;;;;;58.00;47.50;;;;;8.22;76.68;98116.94;4970044;28;8842;-72
2021/12/06 02:14:41;;;;;;;;;59.50;47.75;;;;;8.16;76.21;98118.75;4983274;28;8878;-75
2021/12/06 02:17:18;;;;;;;;;60.00;48.25;;;;;8.29;76.56;98119.44;4941889;28;8866;-74
2021/12/06 02:19:50;;;;;;;;;48.50;41.00;;;;;8.12;76.26;98126.59;5002252;28;8870;-72
2021/12/06 02:22:24;;;;;;;;;60.75;48.25;;;;;8.23;76.70;98139.44;4988334;28;9001;-72
2021/12/06 02:24:54;;;;;;;;;46.75;42.25;;;;;8.05;76.42;98143.13;4966170;28;9035;-77
2021/12/06 02:27:26;;;;;;;;;57.50;47.75;;;;;8.10;77.17;98141.34;4931350;28;8864;-72
2021/12/06 02:29:58;;;;;;;;;54.00;44.50;;;;;7.89;77.22;98150.28;4974406;28;9011;-71
2021/12/06 02:32:27;;;;;;;;;47.25;43.50;;;;;7.86;77.90;98143.38;4966397;28;8876;-72
2021/12/06 02:34:58;;;;;;;;;49.75;44.25;;;;;7.97;77.26;98151.03;4917666;28;8859;-72
2021/12/06 02:37:31;;;;;;;;;51.75;43.25;;;;;7.81;77.19;98143.44;4947000;28;8917;-73
2021/12/06 02:40:09;;;;;;;;;49.25;41.00;;;;;7.82;78.49;98139.09;4934233;28;8862;-73
2021/12/06 02:42:39;;;;;;;;;50.50;44.50;;;;;7.53;78.97;98152.41;4950486;28;8924;-73
2021/12/06 02:45:13;;;;;;;;;49.25;44.00;;;;;7.60;79.03;98154.06;4956996;28;8870;-72
2021/12/06 02:47:42;;;;;;;;;50.00;43.75;;;;;7.57;79.52;98148.91;4950157;28;9064;-73
2021/12/06 02:50:14;;;;;;;;;49.75;42.50;;;;;7.67;79.19;98157.44;4962755;28;8873;-75
2021/12/06 02:52:44;;;;;;;;;45.50;40.75;;;;;7.81;78.96;98156.41;4951447;28;9756;-73
2021/12/06 02:55:29;;;;;;;;;50.75;41.75;;;;;7.84;78.79;98152.06;4965991;28;8993;-72
2021/12/06 02:58:02;;;;;;;;;54.00;42.50;;;;;7.71;78.94;98157.41;4935377;28;8874;-73
2021/12/06 03:00:36;;;;;;;;;50.25;43.25;;;;;7.78;79.07;98153.84;4949956;28;8850;-73
2021/12/06 03:03:05;;;;;;;;;43.50;35.50;;;;;7.66;79.15;98161.78;4971552;28;8927;-73
2021/12/06 03:05:34;;;;;;;;;42.75;35.25;;;;;7.79;78.57;98155.56;5012789;28;8850;-73
2021/12/06 03:08:07;;;;;;;;;45.00;41.00;;;;;7.94;77.37;98156.25;5010028;28;8863;-72
2021/12/06 03:10:35;;;;;;;;;43.50;39.25;;;;;8.05;77.41;98162.16;5009481;28;8889;-72
2021/12/06 03:13:05;;;;;;;;;50.25;41.50;;;;;8.10;77.07;98160.38;5027157;28;8885;-75
2021/12/06 03:15:34;;;;;;;;;36.75;31.25;;;;;7.56;78.62;98167.94;5042270;28;9646;-73
2021/12/06 03:18:03;;;;;;;;;42.50;34.00;;;;;7.63;78.27;98173.91;4956819;28;8901;-72
2021/12/06 03:20:32;;;;;;;;;37.75;36.75;;;;;7.70;78.36;98170.38;5005024;28;8871;-73
2021/12/06 03:23:00;;;;;;;;;27.00;22.75;;;;;7.88;78.04;98165.00;5005147;28;8894;-74
2021/12/06 03:25:30;;;;;;;;;32.50;31.75;;;;;7.79;78.22;98171.13;5005077;28;8999;-74
2021/12/06 03:28:00;;;;;;;;;36.75;34.00;;;;;7.97;77.45;98162.25;4988462;28;8963;-71
2021/12/06 03:30:30;;;;;;;;;41.50;36.00;;;;;8.09;77.23;98168.16;5004041;28;8892;-73
2021/12/06 03:32:59;;;;;;;;;33.75;27.00;;;;;8.13;76.50;98165.53;4988693;28;8953;-75
2021/12/06 03:35:28;;;;;;;;;33.75;30.50;;;;;8.21;76.07;98157.66;4988614;28;8922;-73
2021/12/06 03:37:58;;;;;;;;;31.50;28.50;;;;;8.21;75.41;98152.44;4988224;28;8968;-72
2021/12/06 03:40:26;;;;;;;;;22.25;20.50;;;;;8.19;75.74;98149.00;5005268;28;9002;-76
2021/12/06 03:42:56;;;;;;;;;26.75;24.00;;;;;8.10;75.44;98159.53;4991799;28;8861;-72
2021/12/06 03:45:25;;;;;;;;;30.50;29.00;;;;;7.93;76.44;98162.31;5008075;28;8858;-73
2021/12/06 03:47:54;;;;;;;;;35.50;29.50;;;;;7.52;79.07;98167.09;4929582;28;8836;-72
2021/12/06 03:50:23;;;;;;;;;34.00;28.75;;;;;7.63;78.46;98166.13;5032230;28;8883;-75
2021/12/06 03:52:53;;;;;;;;;34.50;29.25;;;;;7.17;79.46;98170.06;4995512;28;8872;-75
2021/12/06 03:55:21;;;;;;;;;34.25;34.00;;;;;6.53;83.50;98166.25;5029108;28;8848;-75
2021/12/06 03:57:50;;;;;;;;;33.25;32.75;;;;;5.93;86.97;98164.78;5029190;28;8891;-74
2021/12/06 04:00:21;;;;;;;;;37.75;30.75;;;;;5.79;88.78;98169.19;5012467;28;8868;-73
2021/12/06 04:02:57;;;;;;;;;33.25;31.50;;;;;5.57;90.80;98170.97;4991528;28;8973;-73
2021/12/06 04:05:28;;;;;;;;;29.50;28.25;;;;;5.80;91.03;98164.00;4991485;28;8859;-72
2021/12/06 04:07:57;;;;;;;;;20.50;16.75;;;;;5.37;92.48;98163.25;4988662;28;8862;-71
2021/12/06 04:10:26;;;;;;;;;33.75;28.50;;;;;5.17;94.91;98176.22;4955671;28;8874;-72
2021/12/06 04:12:58;;;;;;;;;31.00;26.25;;;;;4.97;97.33;98171.94;4939337;28;8882;-74
2021/12/06 04:15:31;;;;;;;;;32.50;27.00;;;;;4.92;98.17;98172.81;4972827;28;8867;-73
2021/12/06 04:18:00;;;;;;;;;31.75;26.75;;;;;5.04;98.40;98185.69;4991062;28;8879;-73
2021/12/06 04:20:30;;;;;;;;;35.75;32.00;;;;;5.08;98.94;98193.47;4974708;28;8867;-73
2021/12/06 04:22:59;;;;;;;;;44.25;37.25;;;;;5.02;98.43;98187.44;4971581;28;8862;-73
2021/12/06 04:25:29;;;;;;;;;17.50;13.00;;;;;5.22;97.97;98196.03;4974043;28;8894;-73
2021/12/06 04:28:03;;;;;;;;;41.00;36.75;;;;;5.07;97.61;98202.06;4990909;28;8883;-74
2021/12/06 04:30:36;;;;;;;;;35.50;32.00;;;;;4.90;98.80;98206.38;4991402;28;8966;-74
2021/12/06 04:33:07;;;;;;;;;40.00;34.00;;;;;4.95;99.90;98221.88;4992317;28;8894;-73
2021/12/06 04:35:39;;;;;;;;;34.25;34.25;;;;;4.91;99.57;98223.56;5028462;28;8852;-72
2021/12/06 04:38:11;;;;;;;;;41.00;37.50;;;;;4.78;99.99;98239.94;5027188;28;8939;-74
2021/12/06 04:40:40;;;;;;;;;44.75;34.75;;;;;4.92;99.83;98234.78;5028086;28;8906;-72
2021/12/06 04:43:10;;;;;;;;;42.75;39.25;;;;;4.69;100.00;98239.06;5028125;28;8874;-72
2021/12/06 04:45:41;;;;;;;;;28.25;22.25;;;;;4.57;100.00;98238.16;5045169;28;9685;-72
2021/12/06 04:48:10;;;;;;;;;48.25;40.75;;;;;4.53;100.00;98246.78;5026399;28;9668;-72
2021/12/06 04:50:42;;;;;;;;;41.25;35.25;;;;;4.49;100.00;98254.50;5010526;28;9000;-73
2021/12/06 04:53:15;;;;;;;;;41.75;37.50;;;;;4.61;100.00;98264.00;5026204;28;8889;-73
2021/12/06 04:55:46;;;;;;;;;23.25;23.25;;;;;4.65;100.00;98268.31;5042401;28;8854;-75
2021/12/06 04:58:18;;;;;;;;;39.00;34.75;;;;;4.93;100.00;98264.91;5010625;28;8858;-73
2021/12/06 05:00:53;;;;;;;;;37.00;33.50;;;;;5.21;98.32;98276.13;5010432;28;8882;-72
2021/12/06 05:03:23;;;;;;;;;42.75;34.50;;;;;5.28;95.24;98276.13;5027947;28;9660;-74
2021/12/06 05:06:01;;;;;;;;;36.00;33.50;;;;;5.12;95.46;98287.31;5010084;28;8867;-73
2021/12/06 05:08:33;;;;;;;;;27.50;26.25;;;;;5.13;96.04;98290.78;5020208;28;8879;-73
2021/12/06 05:11:04;;;;;;;;;40.50;36.00;;;;;5.45;94.32;98296.81;4992387;28;9045;-73
2021/12/06 05:13:37;;;;;;;;;39.75;34.50;;;;;5.76;92.22;98303.69;5007512;28;8855;-70
2021/12/06 05:16:08;;;;;;;;;44.75;34.50;;;;;6.01;90.94;98313.16;4963831;28;9674;-73
2021/12/06 05:18:37;;;;;;;;;39.25;35.75;;;;;6.06;89.48;98320.91;4993971;28;8892;-73
2021/12/06 05:21:06;;;;;;;;;30.00;29.25;;;;;6.24;87.49;98326.03;4976788;28;8885;-74
2021/12/06 05:23:36;;;;;;;;;44.00;40.50;;;;;6.06;87.21;98326.09;5040531;28;9672;-74
2021/12/06 05:26:05;;;;;;;;;37.00;34.50;;;;;5.95;87.74;98339.03;5026004;28;8936;-74
2021/12/06 05:28:41;;;;;;;;;51.00;43.75;;;;;6.24;87.31;98332.97;5037248;28;8876;-73
2021/12/06 05:31:15;;;;;;;;;32.25;28.75;;;;;5.80;86.95;98341.59;5025795;28;8867;-73
2021/12/06 05:33:46;;;;;;;;;31.50;30.25;;;;;5.76;88.04;98347.66;5026107;28;8890;-73
2021/12/06 05:36:16;;;;;;;;;38.00;34.25;;;;;6.02;87.93;98333.00;5027557;28;8866;-73
2021/12/06 05:38:45;;;;;;;;;29.25;26.25;;;;;5.63;89.29;98342.50;5043646;28;8866;-76
2021/12/06 05:41:13;;;;;;;;;35.50;33.50;;;;;5.72;89.62;98346.78;4995073;28;8958;-73
2021/12/06 05:43:42;;;;;;;;;29.25;26.00;;;;;5.98;88.93;98338.19;5029517;28;8819;-76
2021/12/06 05:46:12;;;;;;;;;36.25;28.75;;;;;5.91;87.70;98341.59;5028749;28;8848;-72
2021/12/06 05:48:42;;;;;;;;;32.25;32.25;;;;;5.57;88.67;98339.03;5046677;28;8847;-72
2021/12/06 05:51:10;;;;;;;;;34.50;30.50;;;;;5.44;90.38;98331.31;5012139;28;8856;-73
2021/12/06 05:53:39;;;;;;;;;33.75;32.00;;;;;5.23;92.56;98354.53;5028947;28;8844;-74
2021/12/06 05:56:08;;;;;;;;;33.25;32.75;;;;;5.45;92.43;98350.25;5012593;28;10222;-72
2021/12/06 05:58:38;;;;;;;;;38.25;31.00;;;;;5.24;91.54;98353.69;4978856;28;8859;-71
2021/12/06 06:01:08;;;;;;;;;35.50;33.00;;;;;5.25;93.01;98363.13;5046342;28;8895;-73
2021/12/06 06:03:38;;;;;;;;;29.75;26.75;;;;;5.00;94.39;98365.69;5027754;28;9544;-72
2021/12/06 06:06:08;;;;;;;;;40.50;36.00;;;;;4.65;95.99;98369.00;5028539;28;8933;-73
2021/12/06 06:08:36;;;;;;;;;32.00;30.75;;;;;4.64;97.12;98371.59;5028301;28;8859;-73
2021/12/06 06:11:06;;;;;;;;;35.25;31.75;;;;;4.47;98.60;98374.09;5011918;28;8867;-73
2021/12/06 06:13:34;;;;;;;;;38.75;33.25;;;;;4.29;100.00;98375.72;5028376;28;8840;-72
2021/12/06 06:16:03;;;;;;;;;38.00;35.75;;;;;4.09;100.00;98387.63;5046388;28;8856;-72
2021/12/06 06:18:32;;;;;;;;;37.75;31.75;;;;;4.03;100.00;98378.16;5046256;28;9573;-73
2021/12/06 06:21:02;;;;;;;;;43.00;34.50;;;;;4.06;100.00;98395.34;5027869;28;8939;-73
2021/12/06 06:23:30;;;;;;;;;42.50;35.00;;;;;3.95;100.00;98384.09;4978483;28;8840;-74
2021/12/06 06:26:00;;;;;;;;;39.75;32.75;;;;;3.87;100.00;98396.94;5027887;28;8852;-74
2021/12/06 06:28:28;;;;;;;;;36.25;30.75;;;;;3.72;100.00;98400.25;5011647;28;8852;-71
2021/12/06 06:30:57;;;;;;;;;37.25;33.50;;;;;3.71;100.00;98408.84;5006349;28;8852;-72
2021/12/06 06:33:26;;;;;;;;;40.75;38.25;;;;;3.63;100.00;98416.53;5006343;28;8860;-73
2021/12/06 06:35:55;;;;;;;;;31.75;27.50;;;;;3.73;100.00;98408.88;4971312;28;8861;-73
2021/12/06 06:38:26;;;;;;;;;50.50;42.50;;;;;3.84;100.00;98410.69;4990147;28;8902;-73
2021/12/06 06:40:54;;;;;;;;;42.75;35.00;;;;;3.77;100.00;98410.63;5001107;28;8948;-73
2021/12/06 06:43:23;;;;;;;;;37.25;33.75;;;;;3.76;100.00;98419.19;5007182;28;8864;-74
2021/12/06 06:45:52;;;;;;;;;41.00;30.50;;;;;3.87;100.00;98421.00;5006679;28;8891;-73
2021/12/06 06:48:21;;;;;;;;;39.50;37.00;;;;;3.93;100.00;98427.91;4971636;28;8903;-74
2021/12/06 06:50:49;;;;;;;;;39.50;35.25;;;;;3.89;100.00;98434.78;5021270;28;8978;-75
2021/12/06 06:53:18;;;;;;;;;32.75;29.25;;;;;3.79;100.00;98440.72;5016290;28;8864;-75
2021/12/06 06:55:49;;;;;;;;;35.50;32.50;;;;;3.83;100.00;98426.97;5024164;28;8945;-74
2021/12/06 06:58:18;;;;;;;;;43.50;33.50;;;;;3.83;100.00;98429.56;5007404;28;8857;-74
2021/12/06 07:00:47;;;;;;;;;38.25;36.25;;;;;3.89;100.00;98434.78;5007877;28;8857;-74
2021/12/06 07:03:16;;;;;;;;;42.25;34.25;;;;;3.93;100.00;98421.91;5010929;28;8877;-72
2021/12/06 07:05:45;;;;;;;;;38.00;34.75;;;;;3.94;100.00;98423.66;5017695;28;8845;-75
2021/12/06 07:08:14;;;;;;;;;32.33;29.67;;;;;3.91;100.00;98409.00;5027054;28;8870;-73
2021/12/06 07:10:44;;;;;;;;;56.50;46.75;;;;;3.86;100.00;98395.22;5026867;28;8829;-73
2021/12/06 07:13:14;;;;;;;;;58.75;48.50;;;;;3.86;100.00;98388.34;5041014;28;8974;-74
2021/12/06 07:15:44;;;;;;;;;45.25;42.00;;;;;3.89;100.00;98393.53;5018556;28;8871;-72
2021/12/06 07:18:12;;;;;;;;;35.00;32.25;;;;;3.92;100.00;98403.00;5049633;28;8840;-72
2021/12/06 07:20:41;;;;;;;;;54.75;43.75;;;;;4.04;100.00;98409.94;5051002;28;8851;-72
2021/12/06 07:23:11;;;;;;;;;51.25;45.50;;;;;4.10;100.00;98407.41;5050451;28;8894;-73
2021/12/06 07:25:40;;;;;;;;;36.00;33.00;;;;;4.17;100.00;98411.75;5031834;28;8828;-73
2021/12/06 07:28:09;;;;;;;;;40.50;39.25;;;;;4.19;100.00;98412.63;5039504;28;8878;-72
2021/12/06 07:30:39;;;;;;;;;39.75;33.25;;;;;4.17;100.00;98416.91;5015083;28;8852;-73
2021/12/06 07:33:08;;;;;;;;;34.25;33.50;;;;;4.22;100.00;98417.81;5011313;28;8883;-73
2021/12/06 07:35:36;;;;;;;;;36.75;34.00;;;;;4.28;100.00;98419.59;5032434;28;8847;-74
2021/12/06 07:38:07;;;;;;;;;40.00;36.50;;;;;4.43;100.00;98403.31;5032328;28;8855;-72
2021/12/06 07:40:36;;;;;;;;;36.50;35.00;;;;;4.48;100.00;98409.38;5050546;28;8903;-73
2021/12/06 07:43:05;;;;;;;;;45.00;37.25;;;;;4.43;100.00;98414.50;5029160;28;8864;-71
2021/12/06 07:45:34;;;;;;;;;30.50;27.25;;;;;4.54;100.00;98412.00;5028357;28;8847;-74
2021/12/06 07:48:06;;;;;;;;;32.00;29.50;;;;;4.79;100.00;98406.94;5031477;28;8858;-74
2021/12/06 07:50:34;;;;;;;;;31.75;28.25;;;;;5.17;98.89;98417.41;5032158;28;8858;-73
2021/12/06 07:53:03;;;;;;;;;38.00;33.50;;;;;5.53;96.90;98420.06;5050351;28;9628;-73
2021/12/06 07:55:34;;;;;;;;;35.75;33.50;;;;;5.63;93.40;98427.84;5035761;28;8916;-73
2021/12/06 07:58:04;;;;;;;;;32.75;29.50;;;;;5.91;91.00;98425.25;5000373;28;8846;-72
2021/12/06 08:00:36;;;;;;;;;28.25;25.25;;;;;5.71;90.26;98422.69;5040290;28;9025;-69
2021/12/06 08:03:07;;;;;;;;;25.00;24.25;;;;;5.96;89.57;98420.97;5036586;28;8839;-70
2021/12/06 08:05:39;;;;;;;;;29.25;28.50;;;;;6.02;88.63;98414.94;5049143;28;8874;-69
2021/12/06 08:08:12;;;;;;;;;32.25;26.50;;;;;6.15;87.87;98421.84;5049043;28;8855;-67
2021/12/06 08:10:44;;;;;;;;;22.75;20.00;;;;;6.20;88.24;98417.53;5044420;28;8838;-67
2021/12/06 08:13:15;;;;;;;;;33.75;30.00;;;;;6.34;86.58;98424.41;5028039;28;8865;-74
2021/12/06 08:15:44;;;;;;;;;27.50;26.00;;;;;6.19;86.24;98426.13;5032579;28;8859;-74
2021/12/06 08:18:15;;;;;;;;;28.50;24.25;;;;;6.30;86.61;98427.88;4990874;28;8973;-74
2021/12/06 08:20:44;;;;;;;;;31.75;26.25;;;;;6.27;86.02;98428.72;4991436;28;8913;-74
2021/12/06 08:23:15;;;;;;;;;27.80;24.40;;;;;6.31;85.43;98432.16;4990336;28;8889;-74
2021/12/06 08:25:46;;;;;;;;;26.75;22.75;;;;;6.49;85.49;98441.63;5007403;28;8874;-73
2021/12/06 08:28:16;;;;;;;;;31.25;29.75;;;;;6.60;84.54;98432.97;5003204;28;8905;-73
2021/12/06 08:30:45;;;;;;;;;34.00;31.50;;;;;6.79;84.06;98444.13;4988667;28;9597;-77
2021/12/06 08:33:16;;;;;;;;;27.00;26.50;;;;;6.91;83.44;98452.75;4978234;28;8886;-77
2021/12/06 08:35:52;;;;;;;;;35.50;33.25;;;;;7.05;83.08;98452.69;4992505;28;8870;-78
2021/12/06 08:38:24;;;;;;;;;33.50;29.25;;;;;7.02;81.07;98467.38;4977825;28;8855;-75
2021/12/06 08:40:54;;;;;;;;;30.00;29.25;;;;;6.57;79.15;98478.72;5010212;28;8846;-76
2021/12/06 08:43:23;;;;;;;;;35.75;31.75;;;;;6.46;81.33;98480.47;5004372;28;9050;-77
2021/12/06 08:45:59;;;;;;;;;29.50;25.25;;;;;6.38;81.40;98483.94;4978742;28;8851;-76
2021/12/06 08:48:31;;;;;;;;;33.75;31.50;;;;;6.53;81.93;98483.06;5013313;28;8893;-78
2021/12/06 08:51:03;;;;;;;;;35.25;33.00;;;;;6.52;82.57;98489.13;5045736;28;8872;-77
2021/12/06 08:53:32;;;;;;;;;28.25;26.00;;;;;6.70;82.74;98484.75;4998401;28;8862;-78
2021/12/06 08:56:02;;;;;;;;;36.00;31.75;;;;;6.49;80.29;98486.50;5028464;28;8904;-78
2021/12/06 08:58:31;;;;;;;;;37.25;32.50;;;;;6.48;80.48;98484.78;5029894;28;8931;-78
2021/12/06 09:01:00;;;;;;;;;29.50;27.00;;;;;6.55;81.10;98493.41;4978117;28;8863;-75
2021/12/06 09:03:30;;;;;;;;;41.75;34.00;;;;;6.21;80.69;98499.47;5010955;28;8968;-75
2021/12/06 09:06:01;;;;;;;;;33.25;28.50;;;;;5.96;81.15;98505.50;5011714;28;8847;-76
2021/12/06 09:08:30;;;;;;;;;27.60;24.00;;;;;5.50;83.02;98510.53;5025688;28;8848;-77
2021/12/06 09:10:59;;;;;;;;;23.25;22.25;;;;;4.91;85.89;98515.47;5025675;28;9093;-76
2021/12/06 09:13:29;;;;;;;;;34.75;30.75;;;;;4.63;87.15;98517.91;5015598;28;8964;-76
2021/12/06 09:16:01;;;;;;;;;30.75;28.00;;;;;4.51;87.57;98510.06;5026776;28;8869;-74
2021/12/06 09:18:34;;;;;;;;;25.50;22.75;;;;;4.53;89.00;98508.34;5010393;28;8856;-75
2021/12/06 09:21:05;;;;;;;;;36.25;30.00;;;;;4.26;89.98;98504.72;5041977;28;8986;-74
2021/12/06 09:23:35;;;;;;;;;35.75;30.00;;;;;4.60;88.37;98517.00;5026515;28;8890;-77
2021/12/06 09:26:04;;;;;;;;;34.75;31.50;;;;;4.24;88.87;98515.88;5028133;28;9676;-75
2021/12/06 09:28:33;;;;;;;;;30.50;25.50;;;;;3.96;89.19;98515.63;5027583;28;9026;-76
2021/12/06 09:31:05;;;;;;;;;44.75;40.25;;;;;3.57;94.93;98516.97;4979007;28;8860;-75
2021/12/06 09:33:36;;;;;;;;;32.75;29.50;;;;;3.59;96.34;98522.13;5018990;28;9654;-77
2021/12/06 09:36:06;;;;;;;;;34.50;32.00;;;;;3.67;96.10;98515.38;5025612;28;8859;-76
2021/12/06 09:38:39;;;;;;;;;29.50;28.25;;;;;3.77;96.08;98519.75;5003530;28;8847;-75
2021/12/06 09:41:12;;;;;;;;;23.00;17.25;;;;;3.93;94.10;98510.44;4989539;28;9037;-77
2021/12/06 09:43:42;;;;;;;;;38.75;35.25;;;;;4.22;92.90;98515.88;5006074;28;8959;-77
2021/12/06 09:46:13;;;;;;;;;37.75;34.50;;;;;4.47;91.57;98516.06;4987840;28;8907;-78
2021/12/06 09:48:45;;;;;;;;;34.25;33.00;;;;;4.52;90.61;98522.13;4970868;28;8869;-78
2021/12/06 09:51:18;;;;;;;;;34.50;32.50;;;;;4.35;90.22;98508.22;4986211;28;8954;-78
2021/12/06 09:53:47;;;;;;;;;38.75;32.00;;;;;4.22;90.36;98512.44;4953545;28;8896;-78
2021/12/06 09:56:22;;;;;;;;;15.00;7.50;;;;;3.94;91.73;98506.19;4973157;28;8893;-78
2021/12/06 09:58:51;;;;;;;;;39.25;32.75;;;;;3.90;92.35;98510.44;4974589;28;9612;-77
2021/12/06 10:01:22;;;;;;;;;50.25;43.50;;;;;4.06;91.98;98501.09;5004973;28;8881;-78
2021/12/06 10:03:55;;;;;;;;;34.25;31.50;;;;;3.69;94.41;98511.94;4984658;28;8874;-78
2021/12/06 10:06:26;;;;;;;;;48.25;40.75;;;;;3.45;96.63;98515.13;4971139;28;8899;-79
2021/12/06 10:08:57;;;;;;;;;51.00;44.75;;;;;3.27;100.00;98512.31;4909686;28;8857;-78
2021/12/06 10:11:31;;;;;;;;;42.50;39.50;;;;;3.21;100.00;98507.09;5023524;28;9005;-78
2021/12/06 10:14:00;;;;;;;;;51.50;42.75;;;;;3.17;100.00;98505.34;5022833;28;9643;-78
2021/12/06 10:16:30;;;;;;;;;39.50;34.00;;;;;2.94;100.00;98511.06;5007206;28;8870;-78
2021/12/06 10:19:00;;;;;;;;;44.75;37.00;;;;;3.12;100.00;98516.47;4996228;28;8846;-77
2021/12/06 10:21:29;;;;;;;;;40.50;36.25;;;;;3.02;100.00;98513.75;4988595;28;8854;-76
2021/12/06 10:23:59;;;;;;;;;41.25;38.75;;;;;2.87;100.00;98517.88;5004905;28;8894;-77
2021/12/06 10:26:30;;;;;;;;;49.75;44.50;;;;;2.84;100.00;98506.66;4988021;28;8993;-76
2021/12/06 10:29:01;;;;;;;;;43.25;39.00;;;;;2.84;100.00;98514.38;4965373;28;8885;-75
2021/12/06 10:31:32;;;;;;;;;44.00;41.50;;;;;2.91;100.00;98518.75;4917389;28;8866;-77
2021/12/06 10:34:02;;;;;;;;;43.50;40.00;;;;;3.16;100.00;98519.94;4934484;28;8890;-75
2021/12/06 10:36:31;;;;;;;;;46.75;41.00;;;;;3.22;100.00;98520.00;4961897;28;9586;-75
2021/12/06 10:39:04;;;;;;;;;42.50;40.75;;;;;3.19;100.00;98511.38;4947046;28;8986;-75
2021/12/06 10:41:34;;;;;;;;;32.00;29.75;;;;;2.90;100.00;98511.88;4930560;28;8961;-74
2021/12/06 10:44:09;;;;;;;;;42.50;34.50;;;;;2.68;100.00;98518.44;4938493;28;8849;-75
2021/12/06 10:46:42;;;;;;;;;56.25;43.50;;;;;2.71;100.00;98518.50;4957284;28;9032;-75
2021/12/06 10:49:14;;;;;;;;;46.75;42.50;;;;;2.86;100.00;98520.41;4952549;28;8881;-76
2021/12/06 10:51:43;;;;;;;;;43.25;37.50;;;;;2.96;100.00;98516.25;5004282;28;8888;-76
2021/12/06 10:54:19;;;;;;;;;34.75;32.75;;;;;2.93;100.00;98504.22;4988200;28;9021;-75
2021/12/06 10:56:52;;;;;;;;;51.00;43.75;;;;;2.83;100.00;98521.22;5003652;28;8855;-76
2021/12/06 10:59:24;;;;;;;;;39.50;35.25;;;;;2.70;100.00;98507.34;4992495;28;8860;-75
2021/12/06 11:01:56;;;;;;;;;41.75;36.25;;;;;2.80;100.00;98510.91;5024717;28;8883;-75
2021/12/06 11:04:29;;;;;;;;;47.00;39.00;;;;;2.87;100.00;98506.69;5007892;28;8911;-78
2021/12/06 11:07:05;;;;;;;;;41.75;39.00;;;;;2.97;100.00;98511.13;5026303;28;8953;-78
2021/12/06 11:09:36;;;;;;;;;17.50;13.50;;;;;2.87;100.00;98514.41;5025816;28;8864;-76
2021/12/06 11:12:08;;;;;;;;;47.00;43.25;;;;;2.91;100.00;98513.59;5023752;28;8891;-74
2021/12/06 11:14:40;;;;;;;;;35.25;31.25;;;;;2.94;100.00;98513.66;5020485;28;8870;-78
2021/12/06 11:17:11;;;;;;;;;49.75;39.25;;;;;2.85;100.00;98504.09;4969048;28;8853;-77
2021/12/06 11:19:42;;;;;;;;;43.00;39.00;;;;;2.90;100.00;98511.88;4938858;28;8995;-76
2021/12/06 11:22:16;;;;;;;;;42.50;37.50;;;;;2.82;100.00;98508.34;4953421;28;8865;-74
2021/12/06 11:24:48;;;;;;;;;36.50;35.25;;;;;2.74;100.00;98513.38;4961859;28;9060;-76
2021/12/06 11:27:22;;;;;;;;;43.00;34.00;;;;;2.84;100.00;98514.38;4945420;28;9021;-76
2021/12/06 11:29:53;;;;;;;;;43.00;37.75;;;;;2.81;100.00;98516.91;4945330;28;8889;-77
2021/12/06 11:32:26;;;;;;;;;41.75;39.50;;;;;2.82;100.00;98521.22;4961549;28;8905;-75
2021/12/06 11:34:58;;;;;;;;;51.25;43.50;;;;;2.93;100.00;98519.66;4944359;28;8862;-76
2021/12/06 11:37:29;;;;;;;;;56.75;46.50;;;;;2.99;100.00;98516.31;4944716;28;8875;-75
2021/12/06 11:40:05;;;;;;;;;52.75;46.25;;;;;2.93;100.00;98519.66;4912791;29;8913;-75
2021/12/06 11:42:48;;;;;;;;;45.50;42.25;;;;;2.90;100.00;98512.75;4945021;28;8856;-76
2021/12/06 11:45:32;;;;;;;;;49.00;42.50;;;;;2.95;100.00;98530.84;4913376;29;8982;-76
2021/12/06 11:48:03;;;;;;;;;48.25;37.75;;;;;2.93;100.00;98522.25;4971358;28;8866;-76
2021/12/06 11:50:33;;;;;;;;;38.50;37.25;;;;;2.84;100.00;98529.84;4933987;28;8892;-76
2021/12/06 11:53:05;;;;;;;;;36.75;34.75;;;;;2.89;100.00;98520.44;4965628;28;8858;-75
2021/12/06 11:55:34;;;;;;;;;43.25;41.25;;;;;2.98;100.00;98524.84;4965637;28;8928;-73
2021/12/06 11:58:04;;;;;;;;;37.50;36.25;;;;;3.32;100.00;98524.41;5019162;28;8868;-75
2021/12/06 12:00:33;;;;;;;;;41.25;38.25;;;;;3.50;100.00;98517.78;5024985;28;8879;-74